createdAt,value
2023-03-05T00:01:33.568Z,69.66
2023-03-05T00:04:03.486Z,69.73
2023-03-05T00:06:33.044Z,69.81
2023-03-05T00:09:01.143Z,69.88
2023-03-05T00:11:33.820Z,70.48
2023-03-05T00:14:06.634Z,70.99
2023-03-05T00:16:34.659Z,71.27
2023-03-05T00:19:02.926Z,71.39
2023-03-05T00:21:38.536Z,71.47
2023-03-05T00:24:18.350Z,71.59
2023-03-05T00:26:46.957Z,72.64
2023-03-05T00:29:18.642Z,72.31
2023-03-05T00:31:46.632Z,71.94
2023-03-05T00:34:16.728Z,71.90
2023-03-05T00:36:48.888Z,72.03
2023-03-05T00:39:19.966Z,72.07
2023-03-05T00:41:48.478Z,72.17
2023-03-05T00:44:16.470Z,71.86
2023-03-05T00:46:45.138Z,72.05
2023-03-05T00:49:13.289Z,72.08
2023-03-05T00:51:42.860Z,72.22
2023-03-05T00:54:11.020Z,72.21
2023-03-05T00:56:39.013Z,72.08
2023-03-05T00:59:07.156Z,72.10
2023-03-05T01:01:35.263Z,72.37
2023-03-05T01:04:04.098Z,72.28
2023-03-05T01:06:32.125Z,72.32
2023-03-05T01:09:00.717Z,71.87
2023-03-05T01:11:28.833Z,71.83
2023-03-05T01:13:57.023Z,71.84
2023-03-05T01:16:25.102Z,71.98
2023-03-05T01:18:53.174Z,71.91
2023-03-05T01:21:22.508Z,72.04
2023-03-05T01:23:50.528Z,71.63
2023-03-05T01:26:18.500Z,71.58
2023-03-05T01:28:46.503Z,71.58
2023-03-05T01:31:14.660Z,71.52
2023-03-05T01:33:42.896Z,71.37
2023-03-05T01:36:16.015Z,71.45
2023-03-05T01:38:46.469Z,71.33
2023-03-05T01:41:16.633Z,71.36
2023-03-05T01:43:47.047Z,71.38
2023-03-05T01:46:27.165Z,71.38
2023-03-05T01:49:01.541Z,71.53
2023-03-05T01:51:35.465Z,71.41
2023-03-05T01:54:06.400Z,71.34
2023-03-05T01:56:34.688Z,71.34
2023-03-05T01:59:03.680Z,71.40
2023-03-05T02:01:53.535Z,71.52
2023-03-05T02:04:26.696Z,71.40
2023-03-05T02:06:54.652Z,71.50
2023-03-05T02:09:25.571Z,71.59
2023-03-05T02:11:53.551Z,71.70
2023-03-05T02:14:24.485Z,71.45
2023-03-05T02:16:52.839Z,71.47
2023-03-05T02:19:20.940Z,71.42
2023-03-05T02:21:50.635Z,71.67
2023-03-05T02:24:35.075Z,71.73
2023-03-05T02:27:05.140Z,71.73
2023-03-05T02:29:37.285Z,71.62
2023-03-05T02:32:05.602Z,71.76
2023-03-05T02:34:33.719Z,71.84
2023-03-05T02:37:04.992Z,71.84
2023-03-05T02:39:33.964Z,71.94
2023-03-05T02:42:01.901Z,72.05
2023-03-05T02:44:30.653Z,72.05
2023-03-05T02:46:58.531Z,72.18
2023-03-05T02:49:27.289Z,72.35
2023-03-05T02:51:55.543Z,72.43
2023-03-05T02:54:23.508Z,72.21
2023-03-05T02:56:52.049Z,72.41
2023-03-05T02:59:20.101Z,72.61
2023-03-05T03:02:34.393Z,72.70
2023-03-05T03:05:03.017Z,72.63
2023-03-05T03:07:31.088Z,73.08
2023-03-05T03:09:59.238Z,72.97
2023-03-05T03:12:27.272Z,73.02
2023-03-05T03:14:55.285Z,72.84
2023-03-05T03:17:23.327Z,72.77
2023-03-05T03:19:51.231Z,72.65
2023-03-05T03:22:19.310Z,72.92
2023-03-05T03:24:47.307Z,73.19
2023-03-05T03:27:15.925Z,73.33
2023-03-05T03:29:43.857Z,73.23
2023-03-05T03:32:11.846Z,73.48
2023-03-05T03:34:39.994Z,73.58
2023-03-05T03:37:09.046Z,73.64
2023-03-05T03:39:36.947Z,73.59
2023-03-05T03:42:05.389Z,73.81
2023-03-05T03:44:33.676Z,73.55
2023-03-05T03:47:01.797Z,73.42
2023-03-05T03:49:29.847Z,73.58
2023-03-05T03:51:58.364Z,73.40
2023-03-05T03:54:26.394Z,73.39
2023-03-05T03:56:55.104Z,73.90
2023-03-05T03:59:23.925Z,74.26
2023-03-05T04:01:52.099Z,74.44
2023-03-05T04:04:20.058Z,74.69
2023-03-05T04:06:48.032Z,74.43
2023-03-05T04:09:16.014Z,74.37
2023-03-05T04:11:44.128Z,74.27
2023-03-05T04:14:12.284Z,74.58
2023-03-05T04:16:40.332Z,74.80
2023-03-05T04:19:08.490Z,74.75
2023-03-05T04:21:36.500Z,74.98
2023-03-05T04:24:04.803Z,74.95
2023-03-05T04:26:32.811Z,74.90
2023-03-05T04:29:00.805Z,75.17
2023-03-05T04:31:28.907Z,75.52
2023-03-05T04:33:56.871Z,75.52
2023-03-05T04:36:24.940Z,75.64
2023-03-05T04:38:52.967Z,75.64
2023-03-05T04:41:20.970Z,75.90
2023-03-05T04:43:48.983Z,75.81
2023-03-05T04:46:17.080Z,75.76
2023-03-05T04:48:45.126Z,75.63
2023-03-05T04:51:13.205Z,75.48
2023-03-05T04:53:41.186Z,75.49
2023-03-05T04:56:09.273Z,75.58
2023-03-05T04:58:37.205Z,75.56
2023-03-05T05:01:06.773Z,75.98
2023-03-05T05:03:35.117Z,76.20
2023-03-05T05:06:03.408Z,76.52
2023-03-05T05:08:32.125Z,76.67
2023-03-05T05:11:03.371Z,76.76
2023-03-05T05:13:32.845Z,76.42
2023-03-05T05:16:00.942Z,76.27
2023-03-05T05:18:29.025Z,76.38
2023-03-05T05:20:56.906Z,76.36
2023-03-05T05:23:24.957Z,76.56
2023-03-05T05:26:01.518Z,76.49
2023-03-05T05:28:30.079Z,76.56
2023-03-05T05:30:58.089Z,76.75
2023-03-05T05:33:27.700Z,76.71
2023-03-05T05:35:55.697Z,76.78
2023-03-05T05:38:23.632Z,76.66
2023-03-05T05:40:51.481Z,76.58
2023-03-05T05:43:19.424Z,76.44
2023-03-05T05:45:47.549Z,76.16
2023-03-05T05:48:15.754Z,76.21
2023-03-05T05:50:44.229Z,75.80
2023-03-05T05:53:12.206Z,75.73
2023-03-05T05:55:41.358Z,75.47
2023-03-05T05:58:09.374Z,75.31
2023-03-05T06:00:37.423Z,75.15
2023-03-05T06:03:05.459Z,74.56
2023-03-05T06:05:34.485Z,74.46
2023-03-05T06:08:02.559Z,74.13
2023-03-05T06:10:30.636Z,73.71
2023-03-05T06:12:58.724Z,73.34
2023-03-05T06:15:26.860Z,73.19
2023-03-05T06:17:54.947Z,73.03
2023-03-05T06:20:23.671Z,72.75
2023-03-05T06:22:51.834Z,72.76
2023-03-05T06:25:20.039Z,72.67
2023-03-05T06:27:48.036Z,72.57
2023-03-05T06:30:16.304Z,72.58
2023-03-05T06:32:45.166Z,72.68
2023-03-05T06:35:14.204Z,72.54
2023-03-05T06:37:42.441Z,72.76
2023-03-05T06:40:12.072Z,72.54
2023-03-05T06:42:40.050Z,72.23
2023-03-05T06:45:09.430Z,71.89
2023-03-05T06:47:37.679Z,71.77
2023-03-05T06:50:06.559Z,71.59
2023-03-05T06:52:34.619Z,71.26
2023-03-05T06:55:03.664Z,70.92
2023-03-05T06:57:31.709Z,70.84
2023-03-05T06:59:59.998Z,70.71
2023-03-05T07:02:28.138Z,70.48
2023-03-05T07:04:56.265Z,70.30
2023-03-05T07:07:24.255Z,70.15
2023-03-05T07:09:54.111Z,69.97
2023-03-05T07:12:22.076Z,69.72
2023-03-05T07:14:50.285Z,69.67
2023-03-05T07:17:18.582Z,69.67
2023-03-05T07:19:46.669Z,69.58
2023-03-05T07:22:14.808Z,69.36
2023-03-05T07:24:43.090Z,69.14
2023-03-05T07:27:11.291Z,69.14
2023-03-05T07:29:39.463Z,69.07
2023-03-05T07:32:07.583Z,69.03
2023-03-05T07:34:37.860Z,69.13
2023-03-05T07:37:05.966Z,69.10
2023-03-05T07:39:34.184Z,69.21
2023-03-05T07:42:02.415Z,69.17
2023-03-05T07:44:31.348Z,69.17
2023-03-05T07:46:59.659Z,69.44
2023-03-05T07:49:27.963Z,69.24
2023-03-05T07:51:56.043Z,68.59
2023-03-05T07:54:24.571Z,68.45
2023-03-05T07:56:55.854Z,68.44
2023-03-05T07:59:23.979Z,67.62
2023-03-05T08:01:51.987Z,66.80
2023-03-05T08:04:20.034Z,66.62
2023-03-05T08:06:50.024Z,66.42
2023-03-05T08:09:19.230Z,66.12
2023-03-05T08:11:47.548Z,65.85
2023-03-05T08:14:15.905Z,65.54
2023-03-05T08:16:47.218Z,65.01
2023-03-05T08:19:16.359Z,64.82
2023-03-05T08:21:44.747Z,64.52
2023-03-05T08:24:14.652Z,63.87
2023-03-05T08:26:43.731Z,63.40
2023-03-05T08:29:11.825Z,63.10
2023-03-05T08:31:45.543Z,62.99
2023-03-05T08:34:13.530Z,62.58
2023-03-05T08:36:42.119Z,62.75
2023-03-05T08:39:10.397Z,61.93
2023-03-05T08:41:39.326Z,61.39
2023-03-05T08:44:07.843Z,60.97
2023-03-05T08:46:37.182Z,60.12
2023-03-05T08:49:07.338Z,59.79
2023-03-05T08:51:36.738Z,59.75
2023-03-05T08:54:07.250Z,58.26
2023-03-05T08:56:35.590Z,56.63
2023-03-05T08:59:04.657Z,55.28
2023-03-05T09:01:33.314Z,56.28
2023-03-05T09:04:01.941Z,55.72
2023-03-05T09:06:30.036Z,53.83
2023-03-05T09:08:58.094Z,54.18
2023-03-05T09:11:26.418Z,54.71
2023-03-05T09:13:54.417Z,55.04
2023-03-05T09:16:22.496Z,54.31
2023-03-05T09:18:50.635Z,54.45
2023-03-05T09:21:18.719Z,54.17
2023-03-05T09:23:50.085Z,53.06
2023-03-05T09:26:22.228Z,53.06
2023-03-05T09:28:50.465Z,53.16
2023-03-05T09:31:19.287Z,52.96
2023-03-05T09:33:49.358Z,52.55
2023-03-05T09:36:21.337Z,52.49
2023-03-05T09:38:50.636Z,53.70
2023-03-05T09:41:40.472Z,53.93
2023-03-05T09:44:33.006Z,52.48
2023-03-05T09:47:24.810Z,52.34
2023-03-05T09:49:58.641Z,49.71
2023-03-05T09:52:49.383Z,49.82
2023-03-05T09:55:26.259Z,50.31
2023-03-05T09:57:58.640Z,50.72
2023-03-05T10:00:49.354Z,50.81
2023-03-05T10:03:46.680Z,50.00
2023-03-05T10:06:25.268Z,50.29
2023-03-05T10:09:17.549Z,50.75
2023-03-05T10:12:01.159Z,49.94
2023-03-05T10:14:39.823Z,50.18
2023-03-05T10:17:17.031Z,49.65
2023-03-05T10:20:14.127Z,48.72
2023-03-05T10:23:01.809Z,48.02
2023-03-05T10:26:08.291Z,48.19
2023-03-05T10:28:56.588Z,47.86
2023-03-05T10:31:37.740Z,49.09
2023-03-05T10:34:31.460Z,48.80
2023-03-05T10:37:27.443Z,48.76
2023-03-05T10:39:55.260Z,47.34
2023-03-05T10:42:52.815Z,47.07
2023-03-05T10:45:36.770Z,47.92
2023-03-05T10:48:14.781Z,47.42
2023-03-05T10:50:49.924Z,48.22
2023-03-05T10:53:33.085Z,48.00
2023-03-05T10:56:05.766Z,47.01
2023-03-05T10:58:33.905Z,47.06
2023-03-05T11:01:04.408Z,47.69
2023-03-05T11:03:53.610Z,47.80
2023-03-05T11:06:40.463Z,47.25
2023-03-05T11:09:29.818Z,47.10
2023-03-05T11:12:20.499Z,47.37
2023-03-05T11:15:03.190Z,47.49
2023-03-05T11:17:34.101Z,47.19
2023-03-05T11:20:26.435Z,47.65
2023-03-05T11:23:15.773Z,47.39
2023-03-05T11:25:56.070Z,48.02
2023-03-05T11:28:33.392Z,48.66
2023-03-05T11:31:17.276Z,48.98
2023-03-05T11:33:56.131Z,49.46
2023-03-05T11:36:29.788Z,49.38
2023-03-05T11:39:18.045Z,48.95
2023-03-05T11:41:53.409Z,48.06
2023-03-05T11:44:28.882Z,47.23
2023-03-05T11:47:05.074Z,46.57
2023-03-05T11:49:45.916Z,45.12
2023-03-05T11:52:31.148Z,45.39
2023-03-05T11:55:14.905Z,46.72
2023-03-05T11:57:50.688Z,46.66
2023-03-05T12:00:25.076Z,45.77
2023-03-05T12:02:56.936Z,45.44
2023-03-05T12:05:25.947Z,44.85
2023-03-05T12:07:58.359Z,45.41
2023-03-05T12:10:26.882Z,45.46
2023-03-05T12:12:57.686Z,45.89
2023-03-05T12:15:29.548Z,46.69
2023-03-05T12:18:16.120Z,46.83
2023-03-05T12:20:47.207Z,46.68
2023-03-05T12:23:19.089Z,45.95
2023-03-05T12:25:53.235Z,44.65
2023-03-05T12:28:36.479Z,44.90
2023-03-05T12:31:10.216Z,45.78
2023-03-05T12:33:41.450Z,45.13
2023-03-05T12:36:36.142Z,44.43
2023-03-05T12:39:42.578Z,45.24
2023-03-05T12:42:28.808Z,45.36
2023-03-05T12:45:16.136Z,43.87
2023-03-05T12:47:56.310Z,44.34
2023-03-05T12:50:27.157Z,44.50
2023-03-05T12:53:04.342Z,45.58
2023-03-05T12:55:36.281Z,46.51
2023-03-05T12:58:34.667Z,46.89
2023-03-05T13:01:11.885Z,46.72
2023-03-05T13:03:51.826Z,46.61
2023-03-05T13:06:24.253Z,46.24
2023-03-05T13:09:08.122Z,46.03
2023-03-05T13:11:39.379Z,45.91
2023-03-05T13:14:26.026Z,45.99
2023-03-05T13:16:53.939Z,46.69
2023-03-05T13:19:22.909Z,47.21
2023-03-05T13:22:11.097Z,46.67
2023-03-05T13:24:39.007Z,46.21
2023-03-05T13:27:29.276Z,46.37
2023-03-05T13:29:57.408Z,46.04
2023-03-05T13:32:28.459Z,46.32
2023-03-05T13:34:59.223Z,46.65
2023-03-05T13:37:31.553Z,47.13
2023-03-05T13:40:07.138Z,47.01
2023-03-05T13:42:36.872Z,47.12
2023-03-05T13:45:08.179Z,47.32
2023-03-05T13:47:36.660Z,47.16
2023-03-05T13:50:08.318Z,47.99
2023-03-05T13:52:38.202Z,49.23
2023-03-05T13:55:15.027Z,50.22
2023-03-05T13:57:45.892Z,50.68
2023-03-05T14:00:27.931Z,51.26
2023-03-05T14:03:00.391Z,52.38
2023-03-05T14:05:31.024Z,53.06
2023-03-05T14:07:59.044Z,53.55
2023-03-05T14:10:34.553Z,53.78
2023-03-05T14:13:06.620Z,53.85
2023-03-05T14:15:35.682Z,53.83
2023-03-05T14:18:12.753Z,53.66
2023-03-05T14:21:17.531Z,53.68
2023-03-05T14:23:48.033Z,53.74
2023-03-05T14:26:29.383Z,53.91
2023-03-05T14:29:03.744Z,54.12
2023-03-05T14:31:39.586Z,54.20
2023-03-05T14:34:08.000Z,54.31
2023-03-05T14:36:36.353Z,54.36
2023-03-05T14:39:05.142Z,54.56
2023-03-05T14:41:41.421Z,54.81
2023-03-05T14:44:15.259Z,55.06
2023-03-05T14:46:43.845Z,55.58
2023-03-05T14:49:11.849Z,56.39
2023-03-05T14:51:43.692Z,56.97
2023-03-05T14:54:20.684Z,57.37
2023-03-05T14:56:49.848Z,57.66
2023-03-05T14:59:21.334Z,58.42
2023-03-05T15:01:50.930Z,59.00
2023-03-05T15:04:20.143Z,59.36
2023-03-05T15:06:51.280Z,59.43
2023-03-05T15:09:20.627Z,59.54
2023-03-05T15:11:49.969Z,60.11
2023-03-05T15:14:17.994Z,60.61
2023-03-05T15:16:46.802Z,60.92
2023-03-05T15:19:14.800Z,60.57
2023-03-05T15:21:42.907Z,61.05
2023-03-05T15:24:11.547Z,61.60
2023-03-05T15:26:39.783Z,61.73
2023-03-05T15:29:07.824Z,62.08
2023-03-05T15:31:38.857Z,62.07
2023-03-05T15:34:07.241Z,62.14
2023-03-05T15:36:35.150Z,62.17
2023-03-05T15:39:03.218Z,61.36
2023-03-05T15:41:31.146Z,60.39
2023-03-05T15:43:59.090Z,59.18
2023-03-05T15:46:27.398Z,58.75
2023-03-05T15:48:55.437Z,58.48
2023-03-05T15:51:23.381Z,58.07
2023-03-05T15:53:51.614Z,57.61
2023-03-05T15:56:19.892Z,57.69
2023-03-05T15:58:52.873Z,57.58
2023-03-05T16:01:20.966Z,57.35
2023-03-05T16:03:52.304Z,56.95
2023-03-05T16:06:23.438Z,56.91
2023-03-05T16:08:55.135Z,56.43
2023-03-05T16:11:23.315Z,56.34
2023-03-05T16:13:51.437Z,56.11
2023-03-05T16:16:20.346Z,56.14
2023-03-05T16:18:48.696Z,56.43
2023-03-05T16:21:17.283Z,56.31
2023-03-05T16:23:45.298Z,56.44
2023-03-05T16:26:13.340Z,56.58
2023-03-05T16:28:41.327Z,56.44
2023-03-05T16:31:09.361Z,56.63
2023-03-05T16:33:37.840Z,56.61
2023-03-05T16:36:11.865Z,56.79
2023-03-05T16:38:39.925Z,56.89
2023-03-05T16:41:08.935Z,57.12
2023-03-05T16:43:37.109Z,57.17
2023-03-05T16:46:05.423Z,57.09
2023-03-05T16:48:35.812Z,57.29
2023-03-05T16:51:04.923Z,57.45
2023-03-05T16:53:33.211Z,57.56
2023-03-05T16:56:06.377Z,57.42
2023-03-05T16:58:35.962Z,57.70
2023-03-05T17:01:09.633Z,57.61
2023-03-05T17:03:41.366Z,57.57
2023-03-05T17:06:18.099Z,57.67
2023-03-05T17:08:46.487Z,57.68
2023-03-05T17:11:15.561Z,57.53
2023-03-05T17:13:44.047Z,57.66
2023-03-05T17:16:14.117Z,57.82
2023-03-05T17:18:42.514Z,57.50
2023-03-05T17:21:12.265Z,57.28
2023-03-05T17:23:41.176Z,57.32
2023-03-05T17:26:15.884Z,57.14
2023-03-05T17:28:44.589Z,57.31
2023-03-05T17:31:14.231Z,57.34
2023-03-05T17:33:42.744Z,57.41
2023-03-05T17:36:16.212Z,57.51
2023-03-05T17:38:45.553Z,57.58
2023-03-05T17:41:14.826Z,57.51
2023-03-05T17:43:42.863Z,57.70
2023-03-05T17:46:12.047Z,57.68
2023-03-05T17:48:40.059Z,57.55
2023-03-05T17:51:11.626Z,57.74
2023-03-05T17:53:40.424Z,57.67
2023-03-05T17:56:14.143Z,57.65
2023-03-05T17:58:42.130Z,57.79
2023-03-05T18:01:10.065Z,57.84
2023-03-05T18:03:38.062Z,57.94
2023-03-05T18:06:06.217Z,57.93
2023-03-05T18:08:34.383Z,57.70
2023-03-05T18:11:02.356Z,57.61
2023-03-05T18:13:30.444Z,57.51
2023-03-05T18:16:01.664Z,57.33
2023-03-05T18:18:29.837Z,56.92
2023-03-05T18:20:58.132Z,56.38
2023-03-05T18:23:26.053Z,55.79
2023-03-05T18:25:54.165Z,55.90
2023-03-05T18:28:22.260Z,55.71
2023-03-05T18:30:50.803Z,55.62
2023-03-05T18:33:23.791Z,55.69
2023-03-05T18:35:52.808Z,55.76
2023-03-05T18:38:22.583Z,55.75
2023-03-05T18:40:54.330Z,55.76
2023-03-05T18:43:24.134Z,55.71
2023-03-05T18:45:54.785Z,55.58
2023-03-05T18:48:23.438Z,55.51
2023-03-05T18:50:53.328Z,55.50
2023-03-05T18:53:22.718Z,55.63
2023-03-05T18:55:52.306Z,55.65
2023-03-05T18:58:23.142Z,55.52
2023-03-05T19:00:52.837Z,55.39
2023-03-05T19:03:22.905Z,55.36
2023-03-05T19:05:51.480Z,55.25
2023-03-05T19:08:20.044Z,55.30
2023-03-05T19:10:48.133Z,55.08
2023-03-05T19:13:40.873Z,55.16
2023-03-05T19:16:15.495Z,55.19
2023-03-05T19:19:12.583Z,55.28
2023-03-05T19:21:48.888Z,55.45
2023-03-05T19:24:17.036Z,55.35
2023-03-05T19:26:47.984Z,54.97
2023-03-05T19:29:16.655Z,54.83
2023-03-05T19:31:44.677Z,54.90
2023-03-05T19:34:12.853Z,55.06
2023-03-05T19:36:41.038Z,55.17
2023-03-05T19:39:09.410Z,55.16
2023-03-05T19:41:37.680Z,55.33
2023-03-05T19:44:06.584Z,55.52
2023-03-05T19:46:34.603Z,55.45
2023-03-05T19:53:31.555Z,55.64
2023-03-05T19:56:03.134Z,55.65
2023-03-05T19:58:31.866Z,55.72
2023-03-05T20:01:29.557Z,55.98
2023-03-05T20:03:59.571Z,56.14
2023-03-05T20:06:30.289Z,56.23
2023-03-05T20:08:59.550Z,56.31
2023-03-05T20:11:28.545Z,56.47
2023-03-05T20:13:57.247Z,56.41
2023-03-05T20:16:35.370Z,56.53
2023-03-05T20:19:07.571Z,56.39
2023-03-05T20:21:40.992Z,56.57
2023-03-05T20:24:12.751Z,56.81
2023-03-05T20:26:46.529Z,56.77
2023-03-05T20:29:17.854Z,56.86
2023-03-05T20:31:50.182Z,56.96
2023-03-05T20:34:19.814Z,57.03
2023-03-05T20:36:48.277Z,57.00
2023-03-05T20:39:16.437Z,57.00
2023-03-05T20:41:49.396Z,57.08
2023-03-05T20:44:17.689Z,57.24
2023-03-05T20:47:16.596Z,57.20
2023-03-05T20:49:46.912Z,57.33
2023-03-05T20:52:17.139Z,57.44
2023-03-05T20:54:47.930Z,57.59
2023-03-05T20:57:15.936Z,57.70
2023-03-05T20:59:43.901Z,57.73
2023-03-05T21:02:12.067Z,57.77
2023-03-05T21:04:40.476Z,57.94
2023-03-05T21:07:09.773Z,58.03
2023-03-05T21:09:37.981Z,57.94
2023-03-05T21:12:08.017Z,58.09
2023-03-05T21:14:40.662Z,58.11
2023-03-05T21:17:09.065Z,57.92
2023-03-05T21:19:39.092Z,57.69
2023-03-05T21:22:07.249Z,57.78
2023-03-05T21:25:15.910Z,57.91
2023-03-05T21:27:44.597Z,57.96
2023-03-05T21:30:12.928Z,57.94
2023-03-05T21:32:41.122Z,58.10
2023-03-05T21:35:15.096Z,58.13
2023-03-05T21:37:43.315Z,58.25
2023-03-05T21:40:14.231Z,58.35
2023-03-05T21:42:43.185Z,58.39
2023-03-05T21:45:14.051Z,58.42
2023-03-05T21:47:42.367Z,58.60
2023-03-05T21:50:12.950Z,58.43
2023-03-05T21:52:41.135Z,58.45
2023-03-05T21:55:13.943Z,58.76
2023-03-05T21:57:42.331Z,58.78
2023-03-05T22:00:17.314Z,58.72
2023-03-05T22:02:45.970Z,58.84
2023-03-05T22:05:15.677Z,58.82
2023-03-05T22:07:45.412Z,59.07
2023-03-05T22:10:17.619Z,59.25
2023-03-05T22:13:08.269Z,59.04
2023-03-05T22:15:49.803Z,59.25
2023-03-05T22:18:26.554Z,59.27
2023-03-05T22:20:54.975Z,59.34
2023-03-05T22:23:25.240Z,59.29
2023-03-05T22:25:58.846Z,59.38
2023-03-05T22:28:28.031Z,59.51
2023-03-05T22:30:56.754Z,59.43
2023-03-05T22:33:25.725Z,59.16
2023-03-05T22:35:54.662Z,58.68
2023-03-05T22:38:23.412Z,58.21
2023-03-05T22:40:51.909Z,57.90
2023-03-05T22:43:20.730Z,57.96
2023-03-05T22:45:48.800Z,57.99
2023-03-05T22:48:17.114Z,57.96
2023-03-05T22:50:45.134Z,58.04
2023-03-05T22:53:13.243Z,58.04
2023-03-05T22:55:42.422Z,58.04
2023-03-05T22:58:10.600Z,58.06
2023-03-05T23:00:38.563Z,57.93
2023-03-05T23:03:06.676Z,58.03
2023-03-05T23:05:35.612Z,57.76
2023-03-05T23:08:03.682Z,57.77
2023-03-05T23:10:31.861Z,57.65
2023-03-05T23:13:01.478Z,57.58
2023-03-05T23:15:34.177Z,57.66
2023-03-05T23:18:03.180Z,57.60
2023-03-05T23:20:35.098Z,57.57
2023-03-05T23:23:04.298Z,57.67
2023-03-05T23:25:35.012Z,57.86
2023-03-05T23:28:03.761Z,58.17
2023-03-05T23:30:34.598Z,58.81
2023-03-05T23:33:15.623Z,59.39
2023-03-05T23:35:54.175Z,59.41
2023-03-05T23:38:23.676Z,59.64
2023-03-05T23:40:54.140Z,59.83
2023-03-05T23:43:27.062Z,60.15
2023-03-05T23:45:55.414Z,60.14
2023-03-05T23:48:25.793Z,60.09
2023-03-05T23:50:54.409Z,60.08
2023-03-05T23:53:27.821Z,60.19
2023-03-05T23:55:56.323Z,60.23
2023-03-05T23:58:24.407Z,60.37
